Stations météo

Publicité
Bramham, Grande-Bretagne (99077): Température de l'air & dewpoint: 04.08.2020 00:00:00 - 10.08.2020 00:00:00 (BST)Bramham, Grande-Bretagne (99077): Vitesse du vent & gusts: 04.08.2020 00:00:00 - 10.08.2020 00:00:00 (BST)Bramham, Grande-Bretagne (99077): Direction du vent: 04.08.2020 00:00:00 - 10.08.2020 00:00:00 (BST)Bramham, Grande-Bretagne (99077): Quantités de précipitations: 04.08.2020 00:00:00 - 10.08.2020 00:00:00 (BST)
Date & Time tt [°C] td [°C] ff [km/h] ff [knt] fx [km/h] fx [knt] dd rr [mm]
10.08.2020 00:00:00 - - - - - - - -
09.08.2020 23:00:00 15,8 13,7 9 5 - - NNE 0,0
09.08.2020 22:00:00 16,1 13,7 13 7 - - NNE 0,0
09.08.2020 21:00:00 16,5 13,7 15 8 - - NNE 0,0
09.08.2020 20:00:00 17,2 13,7 16 9 - - NNE 0,0
09.08.2020 19:00:00 18,4 13,7 21 11 - - NNE 0,0
09.08.2020 18:00:00 20,4 14,1 21 11 - - NNE 0,0
09.08.2020 17:00:00 21,8 14,1 18 10 - - NE 0,0
09.08.2020 16:00:00 23,0 14,7 21 11 - - ENE 0,0
09.08.2020 15:00:00 22,9 14,7 18 10 - - NE 0,0
09.08.2020 14:00:00 20,2 13,7 16 9 - - NNE 0,0
09.08.2020 13:00:00 19,6 14,3 16 9 - - NE 0,0
09.08.2020 12:00:00 18,3 13,7 18 10 - - NNE 0,0
09.08.2020 11:00:00 17,1 13,5 16 9 - - NE 0,0
09.08.2020 10:00:00 16,5 13,4 16 9 - - NNE 0,0
09.08.2020 09:00:00 15,8 13,3 13 7 - - NE 0,0
09.08.2020 08:00:00 15,2 12,9 15 8 - - NNE 0,0
09.08.2020 07:00:00 14,7 12,9 13 7 - - N 0,0
09.08.2020 06:00:00 14,4 12,8 13 7 - - NNE 0,0
09.08.2020 05:00:00 14,4 12,6 13 7 - - NNE 0,0
09.08.2020 04:00:00 14,4 12,4 15 8 - - NNE 0,0
09.08.2020 03:00:00 14,5 12,3 16 9 - - NNE 0,0
09.08.2020 02:00:00 14,4 12,3 15 8 - - N 0,0
09.08.2020 01:00:00 14,2 12,2 15 8 - - N 0,0
09.08.2020 00:00:00 13,9 12,2 11 6 - - N 0,0
08.08.2020 23:00:00 13,3 11,9 9 5 - - N 0,0
08.08.2020 22:00:00 14,3 11,9 11 6 - - NNE 0,0
08.08.2020 21:00:00 15,8 12,1 11 6 - - NNE 0,0
08.08.2020 20:00:00 17,1 11,9 18 10 - - NE 0,0
08.08.2020 19:00:00 19,0 12,3 16 9 - - NE 0,0
08.08.2020 18:00:00 21,4 11,6 22 12 - - NE 0,0
08.08.2020 17:00:00 23,6 12,6 18 10 - - NE 0,0
08.08.2020 16:00:00 25,3 13,6 18 10 - - NNE 0,0
08.08.2020 15:00:00 25,9 14,2 13 7 - - NE 0,0
08.08.2020 14:00:00 25,1 14,3 13 7 - - N 0,0
08.08.2020 13:00:00 24,5 14,7 15 8 - - NNE 0,0
08.08.2020 12:00:00 22,9 15,5 13 7 - - N 0,0
08.08.2020 11:00:00 21,7 15,3 15 8 - - NNW 0,0
08.08.2020 10:00:00 20,7 14,2 21 11 - - NNW 0,0
08.08.2020 09:00:00 19,4 14,1 22 12 - - NNW 0,0
08.08.2020 08:00:00 17,7 15,5 15 8 - - NNW 0,0
08.08.2020 07:00:00 15,7 15,3 9 5 - - NW 0,0
08.08.2020 06:00:00 14,5 14,1 9 5 - - WNW 0,0
08.08.2020 05:00:00 15,1 14,6 8 4 - - WNW 0,0
08.08.2020 04:00:00 15,0 14,5 5 3 - - W 0,0
08.08.2020 03:00:00 15,7 15,1 9 5 - - W 0,0
08.08.2020 02:00:00 15,9 15,0 5 3 - - W 0,0
08.08.2020 01:00:00 17,3 15,7 9 5 - - W 0,0
08.08.2020 00:00:00 18,4 16,9 9 5 - - W 0,0
07.08.2020 23:00:00 19,5 17,6 11 6 - - WNW 0,0
07.08.2020 22:00:00 20,6 17,9 9 5 - - WNW 0,0
07.08.2020 21:00:00 22,2 18,6 11 6 - - W 0,0
07.08.2020 20:00:00 23,9 18,4 11 6 - - WNW 0,0
07.08.2020 19:00:00 25,0 17,9 11 6 - - W 0,0
07.08.2020 18:00:00 27,3 16,1 13 7 - - SW 0,0
07.08.2020 17:00:00 28,5 14,7 16 9 - - SSW 0,0
07.08.2020 16:00:00 28,5 17,9 21 11 - - SSW 0,0
07.08.2020 15:00:00 28,4 17,3 16 9 - - S 0,0
07.08.2020 14:00:00 26,7 17,1 18 10 - - S 0,0
07.08.2020 13:00:00 25,4 18,9 9 5 - - SSE 0,0
07.08.2020 12:00:00 26,1 18,0 13 7 - - S 0,0
07.08.2020 11:00:00 25,4 18,3 13 7 - - S 0,0
07.08.2020 10:00:00 23,8 19,2 13 7 - - SE 0,0
07.08.2020 09:00:00 21,2 18,5 8 4 - - ESE 0,0
07.08.2020 08:00:00 18,9 18,1 8 4 - - ESE 0,0
07.08.2020 07:00:00 17,6 17,6 4 2 - - SSE 0,0
07.08.2020 06:00:00 16,0 15,9 5 3 - - SE 0,0
07.08.2020 05:00:00 15,6 15,4 5 3 - - SE 0,0
07.08.2020 04:00:00 16,1 15,4 2 1 - - SSE 0,0
07.08.2020 03:00:00 17,1 17,0 9 5 - - SSW 0,0
07.08.2020 02:00:00 16,1 15,7 2 1 - - ESE 0,0
07.08.2020 01:00:00 17,7 16,9 8 4 - - SSE 0,0
07.08.2020 00:00:00 19,2 17,8 13 7 - - SSE 0,0
06.08.2020 23:00:00 17,6 15,8 9 5 - - SE 0,0
06.08.2020 22:00:00 19,2 17,4 13 7 - - SSE 0,0
06.08.2020 21:00:00 19,5 16,4 9 5 - - S 0,0
06.08.2020 20:00:00 21,8 16,6 11 6 - - S 0,0
06.08.2020 19:00:00 23,0 16,7 13 7 - - S 0,0
06.08.2020 18:00:00 23,2 15,1 11 6 - - SSE 0,0
06.08.2020 17:00:00 23,7 16,3 18 10 - - S 0,0
06.08.2020 16:00:00 23,3 15,7 13 7 - - SSE 0,0
06.08.2020 15:00:00 22,6 15,8 5 3 - - SE 0,0
06.08.2020 14:00:00 21,5 15,5 13 7 - - SE 0,0
06.08.2020 13:00:00 20,9 15,8 11 6 - - SSE 0,0
06.08.2020 12:00:00 19,8 15,2 11 6 - - SSE 0,0
06.08.2020 11:00:00 20,0 15,2 11 6 - - S 0,0
06.08.2020 10:00:00 19,4 15,6 11 6 - - SSE 0,0
06.08.2020 09:00:00 19,4 16,4 8 4 - - S 0,0
06.08.2020 08:00:00 18,1 15,9 4 2 - - SW 0,0
06.08.2020 07:00:00 17,1 15,8 4 2 - - W 0,0
06.08.2020 06:00:00 16,6 15,5 4 2 - - WSW 0,0
06.08.2020 05:00:00 16,2 15,0 5 3 - - W 0,0
06.08.2020 04:00:00 16,8 15,4 9 5 - - SW 0,0
06.08.2020 03:00:00 16,0 14,7 2 1 - - SSE 0,0
06.08.2020 02:00:00 16,9 15,1 4 2 - - ENE 0,0
06.08.2020 01:00:00 18,8 15,9 16 9 - - SW 0,0
06.08.2020 00:00:00 19,0 16,1 13 7 - - SSW 0,0
05.08.2020 23:00:00 19,1 16,0 16 9 - - SSW 0,0
05.08.2020 22:00:00 19,2 16,0 15 8 - - SSE 0,0
05.08.2020 21:00:00 19,9 15,9 18 10 - - S 0,0
05.08.2020 20:00:00 20,8 15,4 18 10 - - S 0,0
05.08.2020 19:00:00 21,1 15,4 22 12 - - S 0,0
05.08.2020 18:00:00 20,4 17,1 9 5 - - S 0,0
05.08.2020 17:00:00 21,6 14,0 28 15 - - S 0,0
05.08.2020 16:00:00 23,0 13,8 28 15 57 31 S 0,0
05.08.2020 15:00:00 23,7 15,4 24 13 48 26 S 0,0
05.08.2020 14:00:00 21,0 14,8 24 13 54 29 SSW 0,0
05.08.2020 13:00:00 22,0 15,1 29 16 52 28 SSW 0,0
05.08.2020 12:00:00 22,2 14,7 42 23 57 31 SSW 0,0
05.08.2020 11:00:00 20,7 15,4 29 16 - - SSW 0,0
05.08.2020 10:00:00 19,5 15,0 26 14 50 27 S 0,0
05.08.2020 09:00:00 19,3 14,8 28 15 - - SSW 0,0
05.08.2020 08:00:00 18,2 14,5 21 11 - - SSW 0,0
05.08.2020 07:00:00 16,8 14,6 9 5 - - SSE 0,0
05.08.2020 06:00:00 17,5 14,1 21 11 - - SSW 0,0
05.08.2020 05:00:00 17,3 14,2 18 10 - - SSW 0,0
05.08.2020 04:00:00 17,4 14,3 22 12 - - SSW 0,0
05.08.2020 03:00:00 17,4 14,4 28 15 - - SSW 0,0
05.08.2020 02:00:00 17,2 14,9 22 12 - - SSW 0,0
05.08.2020 01:00:00 16,8 14,4 21 11 - - SSW 0,0
05.08.2020 00:00:00 17,9 13,9 22 12 - - SSW 0,0
04.08.2020 23:00:00 17,6 13,9 29 16 50 27 SSW 0,0
04.08.2020 22:00:00 17,4 13,8 31 17 - - S 0,0
04.08.2020 21:00:00 18,1 13,8 26 14 50 27 SSW 0,0
04.08.2020 20:00:00 18,3 13,5 28 15 - - SSW 0,0
04.08.2020 19:00:00 18,1 12,2 29 16 50 27 SSW 0,0
04.08.2020 18:00:00 18,5 12,6 31 17 - - S 0,0
04.08.2020 17:00:00 18,1 12,0 28 15 - - S 0,0
04.08.2020 16:00:00 16,5 11,4 28 15 - - S 0,0
04.08.2020 15:00:00 15,1 10,9 28 15 - - S 0,0
04.08.2020 14:00:00 13,9 11,7 16 9 - - S 0,0
04.08.2020 13:00:00 13,6 11,3 26 14 - - SSE 0,0
04.08.2020 12:00:00 12,7 11,2 18 10 - - SSE 0,0
04.08.2020 11:00:00 12,7 11,0 16 9 - - S 0,0
04.08.2020 10:00:00 14,1 9,6 18 10 - - S 0,0
04.08.2020 09:00:00 13,0 9,5 15 8 - - S 0,0
04.08.2020 08:00:00 12,1 9,6 9 5 - - SSW 0,0
04.08.2020 07:00:00 11,3 9,5 11 6 - - SSW 0,0
04.08.2020 06:00:00 9,7 8,6 11 6 - - SSW 0,0
04.08.2020 05:00:00 8,8 8,1 9 5 - - SSW 0,0
04.08.2020 04:00:00 8,4 7,7 8 4 - - WSW 0,0
04.08.2020 03:00:00 9,8 8,3 8 4 - - WSW 0,0
04.08.2020 02:00:00 9,9 8,6 8 4 - - WSW 0,0
04.08.2020 01:00:00 10,0 8,3 5 3 - - WSW 0,0
04.08.2020 00:00:00 10,9 8,4 9 5 - - WSW 0,0

tt = Température de l'air
td = dewpoint
ff = Vitesse du vent
fx = gusts
dd = Direction du vent
rr = Quantités de précipitations

stations d'obs. à proximité